Time;durP1;ratioP1;P1;durP2;ratioP2;P2;SDS_P1;SDS_P2;PMS_P1;PMS_P2;Temp;Humidity;BMP_temperature;BMP_pressure;BME280_temperature;BME280_humidity;BME280_pressure;Samples;Min_cycle;Max_cycle;Signal;HPM_P1;HPM_P2
2022/04/30 00:02:08;;;;;;;;;;;16.10;41.60;;;;;;5017014;28;19918;-60
2022/04/30 00:04:38;;;;;;;;;;;16.00;41.60;;;;;;5017035;28;20277;-62
2022/04/30 00:07:03;;;;;;;;;;;16.00;41.60;;;;;;5016880;28;19982;-61
2022/04/30 00:09:29;;;;;;;;;;;16.00;41.70;;;;;;5017345;28;19941;-63
2022/04/30 00:11:55;;;;;;;;;;;15.90;42.00;;;;;;5016768;28;19909;-62
2022/04/30 00:14:20;;;;;;;;;;;15.90;41.80;;;;;;5016659;28;20359;-62
2022/04/30 00:16:47;;;;;;;;;;;15.90;42.20;;;;;;5016840;28;20000;-62
2022/04/30 00:19:12;;;;;;;;;;;15.90;41.80;;;;;;5016919;28;19909;-61
2022/04/30 00:21:38;;;;;;;;;;;15.90;41.90;;;;;;5016578;28;19924;-64
2022/04/30 00:24:04;;;;;;;;;;;15.80;42.10;;;;;;5016542;28;19922;-62
2022/04/30 00:26:29;;;;;;;;;;;15.80;42.10;;;;;;5016595;28;19909;-63
2022/04/30 00:28:55;;;;;;;;;;;15.70;42.10;;;;;;5016786;28;19916;-62
2022/04/30 00:31:20;;;;;;;;;;;15.70;42.10;;;;;;5016852;28;20385;-68
2022/04/30 00:33:48;;;;;;;;;;;15.70;42.20;;;;;;5016213;28;19921;-61
2022/04/30 00:36:14;;;;;;;;;;;15.70;42.10;;;;;;5016386;28;19910;-63
2022/04/30 00:38:40;;;;;;;;;;;15.70;42.10;;;;;;5016239;28;20289;-61
2022/04/30 00:41:06;;;;;;;;;;;15.70;42.30;;;;;;5016114;28;19925;-67
2022/04/30 00:43:42;;;;;;;;;;;15.70;42.30;;;;;;5016065;28;19913;-63
2022/04/30 00:46:11;;;;;;;;;;;15.70;42.20;;;;;;5016172;28;19985;-62
2022/04/30 00:48:36;;;;;;;;;;;15.70;41.90;;;;;;5016089;28;20281;-65
2022/04/30 00:51:02;;;;;;;;;;;15.70;42.10;;;;;;5016097;28;19909;-61
2022/04/30 00:53:28;;;;;;;;;;;15.80;42.00;;;;;;5016224;28;19910;-65
2022/04/30 00:55:56;;;;;;;;;;;15.70;41.90;;;;;;5016134;28;19909;-64
2022/04/30 00:58:22;;;;;;;;;;;15.80;42.20;;;;;;5016235;28;19945;-64
2022/04/30 01:00:49;;;;;;;;;;;15.80;42.00;;;;;;5015850;28;20016;-64
2022/04/30 01:03:14;;;;;;;;;;;15.80;42.10;;;;;;5016017;28;20280;-64
2022/04/30 01:05:40;;;;;;;;;;;15.70;42.00;;;;;;5015815;28;19913;-63
2022/04/30 01:08:05;;;;;;;;;;;15.80;42.20;;;;;;5015973;28;19909;-63
2022/04/30 01:10:32;;;;;;;;;;;15.70;42.00;;;;;;5015699;28;20312;-63
2022/04/30 01:12:58;;;;;;;;;;;15.70;42.10;;;;;;5015028;28;19916;-62
2022/04/30 01:15:24;;;;;;;;;;;15.70;42.40;;;;;;5015755;28;19910;-62
2022/04/30 01:17:49;;;;;;;;;;;15.60;41.50;;;;;;5015774;28;19910;-60
2022/04/30 01:20:15;;;;;;;;;;;15.60;42.00;;;;;;5015631;28;20362;-58
2022/04/30 01:22:54;;;;;;;;;;;15.70;42.30;;;;;;5015659;28;19914;-59
2022/04/30 01:25:20;;;;;;;;;;;15.70;42.30;;;;;;5014188;28;19917;-62
2022/04/30 01:27:45;;;;;;;;;;;15.90;42.20;;;;;;5015348;28;19909;-62
2022/04/30 01:30:13;;;;;;;;;;;15.80;42.90;;;;;;5015395;28;19909;-63
2022/04/30 01:38:09;;;;;;;;;;;15.50;44.30;;;;;;5015577;28;19917;-63
2022/04/30 01:40:34;;;;;;;;;;;15.40;45.30;;;;;;5015052;28;19924;-59
2022/04/30 01:43:01;;;;;;;;;;;15.30;44.80;;;;;;5014952;28;19996;-63
2022/04/30 01:45:27;;;;;;;;;;;15.30;45.20;;;;;;5013569;28;20345;-64
2022/04/30 01:47:53;;;;;;;;;;;15.20;45.40;;;;;;5015214;28;19981;-61
2022/04/30 01:50:19;;;;;;;;;;;15.10;45.40;;;;;;5014948;28;19909;-62
2022/04/30 01:52:44;;;;;;;;;;;15.00;45.10;;;;;;5014887;28;19910;-61
2022/04/30 01:55:10;;;;;;;;;;;15.10;45.20;;;;;;5014824;28;19919;-65
2022/04/30 01:57:40;;;;;;;;;;;15.20;43.90;;;;;;5014740;28;20370;-64
2022/04/30 02:00:06;;;;;;;;;;;15.30;44.20;;;;;;5014790;28;20334;-59
2022/04/30 02:02:34;;;;;;;;;;;15.30;43.50;;;;;;5014605;28;19914;-63
2022/04/30 02:05:01;;;;;;;;;;;15.40;43.20;;;;;;5014932;28;19909;-64
2022/04/30 02:07:28;;;;;;;;;;;15.40;43.00;;;;;;5014803;28;20441;-62
2022/04/30 02:09:54;;;;;;;;;;;15.50;43.00;;;;;;5014789;28;19917;-60
2022/04/30 02:12:20;;;;;;;;;;;15.50;42.80;;;;;;5014654;28;20411;-59
2022/04/30 02:14:51;;;;;;;;;;;15.50;42.90;;;;;;5014748;28;19910;-62
2022/04/30 02:17:17;;;;;;;;;;;15.50;42.90;;;;;;5014783;28;20008;-59
2022/04/30 02:22:30;;;;;;;;;;;15.50;43.60;;;;;;5014188;28;19936;-60
2022/04/30 02:24:57;;;;;;;;;;;15.40;42.70;;;;;;5013632;28;19913;-60
2022/04/30 02:27:23;;;;;;;;;;;15.30;43.50;;;;;;5014253;28;19909;-60
2022/04/30 02:29:48;;;;;;;;;;;15.20;43.60;;;;;;5014448;28;19950;-62
2022/04/30 02:32:14;;;;;;;;;;;15.10;43.50;;;;;;5014137;28;19909;-64
2022/04/30 02:34:39;;;;;;;;;;;15.10;43.60;;;;;;5014131;28;19910;-62
2022/04/30 02:37:05;;;;;;;;;;;15.10;43.40;;;;;;5014408;28;19909;-65
2022/04/30 02:39:31;;;;;;;;;;;15.00;43.70;;;;;;5014107;28;19909;-64
2022/04/30 02:41:57;;;;;;;;;;;15.00;43.70;;;;;;5014247;28;19917;-63
2022/04/30 02:44:26;;;;;;;;;;;15.10;43.50;;;;;;5014474;28;20372;-65
2022/04/30 02:46:55;;;;;;;;;;;15.00;43.60;;;;;;5014413;28;19909;-61
2022/04/30 02:49:21;;;;;;;;;;;15.00;43.90;;;;;;5014175;28;19924;-62
2022/04/30 02:51:48;;;;;;;;;;;15.00;44.10;;;;;;5012677;28;19910;-63
2022/04/30 02:54:15;;;;;;;;;;;15.10;43.90;;;;;;5014147;28;19964;-68
2022/04/30 02:56:40;;;;;;;;;;;15.00;43.80;;;;;;5014325;28;19956;-62
2022/04/30 03:01:50;;;;;;;;;;;15.10;43.80;;;;;;5014122;28;19971;-67
2022/04/30 03:04:16;;;;;;;;;;;15.10;44.00;;;;;;5013901;28;20000;-65
2022/04/30 03:06:41;;;;;;;;;;;15.00;44.30;;;;;;5014025;28;19909;-65
2022/04/30 03:09:07;;;;;;;;;;;15.00;44.30;;;;;;5014081;28;19910;-67
2022/04/30 03:11:33;;;;;;;;;;;14.90;44.20;;;;;;5013974;28;19910;-68
2022/04/30 03:13:58;;;;;;;;;;;14.90;44.60;;;;;;5013967;28;19909;-64
2022/04/30 03:21:53;;;;;;;;;;;14.90;44.30;;;;;;5014326;28;19971;-66
2022/04/30 03:24:18;;;;;;;;;;;14.80;44.60;;;;;;5013794;28;19944;-66
2022/04/30 03:26:45;;;;;;;;;;;14.80;44.60;;;;;;5013798;28;20265;-65
2022/04/30 03:29:10;;;;;;;;;;;14.70;44.70;;;;;;5013881;28;20285;-64
2022/04/30 03:31:39;;;;;;;;;;;14.70;44.80;;;;;;5013573;28;19913;-60
2022/04/30 03:34:06;;;;;;;;;;;14.60;45.00;;;;;;5013499;28;19905;-63
2022/04/30 03:36:33;;;;;;;;;;;14.60;45.10;;;;;;5017497;28;19910;-61
2022/04/30 03:38:58;;;;;;;;;;;14.60;45.40;;;;;;5017586;28;19944;-61
2022/04/30 03:41:24;;;;;;;;;;;14.60;45.30;;;;;;5017504;28;20392;-60
2022/04/30 03:43:50;;;;;;;;;;;14.60;45.20;;;;;;5017421;28;19909;-60
2022/04/30 03:46:17;;;;;;;;;;;14.60;45.10;;;;;;5017463;28;19956;-60
2022/04/30 03:48:42;;;;;;;;;;;14.60;45.00;;;;;;5017336;28;19909;-60
2022/04/30 03:51:08;;;;;;;;;;;14.60;45.20;;;;;;5017260;28;19924;-62
2022/04/30 03:53:34;;;;;;;;;;;14.60;45.10;;;;;;5017115;28;20000;-64
2022/04/30 03:56:00;;;;;;;;;;;14.60;45.10;;;;;;5017238;28;20036;-59
2022/04/30 03:58:26;;;;;;;;;;;14.70;44.70;;;;;;5017647;28;19917;-63
2022/04/30 04:00:53;;;;;;;;;;;14.60;45.00;;;;;;5016886;28;19918;-60
2022/04/30 04:03:19;;;;;;;;;;;14.60;44.70;;;;;;5017138;28;19917;-60
2022/04/30 04:05:46;;;;;;;;;;;14.70;44.70;;;;;;5017222;28;19909;-60
2022/04/30 04:08:14;;;;;;;;;;;14.60;44.90;;;;;;5016922;28;20350;-61
2022/04/30 04:10:41;;;;;;;;;;;14.70;44.90;;;;;;5017056;28;19918;-60
2022/04/30 04:18:35;;;;;;;;;;;14.60;45.30;;;;;;5016827;28;19921;-61
2022/04/30 04:21:02;;;;;;;;;;;14.70;45.10;;;;;;5017009;28;19918;-67
2022/04/30 04:23:27;;;;;;;;;;;14.50;45.40;;;;;;5016389;28;19937;-64
2022/04/30 04:26:00;;;;;;;;;;;14.60;45.30;;;;;;5016532;28;19909;-60
2022/04/30 04:28:29;;;;;;;;;;;14.60;45.30;;;;;;5016679;28;20275;-63
2022/04/30 04:30:56;;;;;;;;;;;14.70;45.20;;;;;;5016838;28;19910;-60
2022/04/30 04:33:21;;;;;;;;;;;14.70;44.90;;;;;;5016590;28;19963;-63
2022/04/30 04:35:47;;;;;;;;;;;14.80;45.10;;;;;;5016628;28;20339;-62
2022/04/30 04:38:12;;;;;;;;;;;14.70;45.30;;;;;;5016301;28;19909;-65
2022/04/30 04:40:38;;;;;;;;;;;14.70;45.20;;;;;;5016263;28;19917;-59
2022/04/30 04:43:03;;;;;;;;;;;14.80;45.10;;;;;;5016450;28;19909;-60
2022/04/30 04:45:29;;;;;;;;;;;14.70;44.90;;;;;;5016676;28;19959;-60
2022/04/30 04:47:55;;;;;;;;;;;14.70;45.20;;;;;;5015465;28;20334;-62
2022/04/30 04:50:22;;;;;;;;;;;14.80;45.30;;;;;;5016510;28;19917;-59
2022/04/30 04:52:47;;;;;;;;;;;14.80;45.80;;;;;;5015940;28;19913;-60
2022/04/30 04:55:13;;;;;;;;;;;14.90;45.20;;;;;;5016193;28;19917;-62
2022/04/30 04:57:38;;;;;;;;;;;14.90;44.90;;;;;;5016422;28;19916;-59
2022/04/30 05:00:06;;;;;;;;;;;14.90;45.10;;;;;;5016147;28;20012;-61
2022/04/30 05:02:32;;;;;;;;;;;15.00;44.80;;;;;;5015987;28;20005;-59
2022/04/30 05:04:57;;;;;;;;;;;15.00;45.00;;;;;;5015841;28;20029;-60
2022/04/30 05:07:24;;;;;;;;;;;15.00;44.50;;;;;;5015703;28;20269;-58
2022/04/30 05:09:49;;;;;;;;;;;15.10;44.50;;;;;;5016086;28;19909;-65
2022/04/30 05:12:15;;;;;;;;;;;15.00;44.60;;;;;;5015867;28;20400;-60
2022/04/30 05:14:41;;;;;;;;;;;15.10;44.30;;;;;;5015650;28;19909;-62
2022/04/30 05:17:09;;;;;;;;;;;15.10;44.70;;;;;;5015918;28;19913;-61
2022/04/30 05:19:35;;;;;;;;;;;15.20;44.50;;;;;;5014447;28;20413;-60
2022/04/30 05:22:00;;;;;;;;;;;15.10;44.70;;;;;;5015246;28;19988;-60
2022/04/30 05:24:26;;;;;;;;;;;15.10;45.00;;;;;;5015510;28;19982;-66
2022/04/30 05:26:52;;;;;;;;;;;15.10;45.80;;;;;;5015765;28;19910;-64
2022/04/30 05:29:17;;;;;;;;;;;15.10;45.80;;;;;;5015632;28;19909;-60
2022/04/30 05:31:43;;;;;;;;;;;15.20;44.90;;;;;;5015441;28;19913;-61
2022/04/30 05:34:09;;;;;;;;;;;15.10;44.40;;;;;;5015562;28;19910;-60
2022/04/30 05:36:34;;;;;;;;;;;15.20;44.60;;;;;;5015580;28;19925;-62
2022/04/30 05:39:00;;;;;;;;;;;15.10;44.00;;;;;;5015228;28;19910;-61
2022/04/30 05:41:26;;;;;;;;;;;15.30;44.60;;;;;;5014975;28;19924;-63
2022/04/30 05:43:52;;;;;;;;;;;15.40;45.30;;;;;;5015172;28;19909;-65
2022/04/30 05:46:18;;;;;;;;;;;15.40;43.60;;;;;;5015217;28;20051;-61
2022/04/30 05:48:43;;;;;;;;;;;15.40;43.70;;;;;;5015498;28;19956;-63
2022/04/30 05:51:09;;;;;;;;;;;15.40;43.70;;;;;;5015007;28;19910;-64
2022/04/30 05:53:34;;;;;;;;;;;15.40;44.20;;;;;;5014940;28;19914;-60
2022/04/30 05:56:00;;;;;;;;;;;15.80;44.10;;;;;;5014665;28;19910;-66
2022/04/30 05:58:25;;;;;;;;;;;16.20;43.20;;;;;;5014482;28;19965;-63
2022/04/30 06:00:51;;;;;;;;;;;16.30;42.50;;;;;;5014880;28;19918;-65
2022/04/30 06:03:17;;;;;;;;;;;16.60;41.60;;;;;;5014654;28;19913;-63
2022/04/30 06:05:42;;;;;;;;;;;16.90;41.40;;;;;;5014474;28;19910;-68
2022/04/30 06:08:08;;;;;;;;;;;17.30;45.90;;;;;;5014662;28;20302;-67
2022/04/30 06:10:33;;;;;;;;;;;17.70;43.60;;;;;;5014766;28;20369;-66
2022/04/30 06:12:59;;;;;;;;;;;17.90;45.50;;;;;;5014708;28;19941;-65
2022/04/30 06:15:25;;;;;;;;;;;18.30;41.90;;;;;;5014623;28;19909;-61
2022/04/30 06:17:51;;;;;;;;;;;18.10;43.20;;;;;;5014426;28;19909;-62
2022/04/30 06:20:17;;;;;;;;;;;18.00;43.90;;;;;;5013643;28;19971;-62
2022/04/30 06:22:42;;;;;;;;;;;17.90;44.00;;;;;;5014167;28;19964;-63
2022/04/30 06:25:08;;;;;;;;;;;18.20;44.50;;;;;;5014373;28;19916;-62
2022/04/30 06:27:34;;;;;;;;;;;18.50;43.40;;;;;;5014296;28;20003;-63
2022/04/30 06:30:00;;;;;;;;;;;18.70;41.80;;;;;;5014471;28;19909;-63
2022/04/30 06:32:26;;;;;;;;;;;19.00;43.40;;;;;;5014230;28;19952;-65
2022/04/30 06:34:52;;;;;;;;;;;19.30;42.40;;;;;;5014222;28;19917;-62
2022/04/30 06:37:18;;;;;;;;;;;19.50;40.80;;;;;;5014378;28;19910;-62
2022/04/30 06:39:44;;;;;;;;;;;19.80;42.00;;;;;;5014192;28;19909;-62
2022/04/30 06:42:09;;;;;;;;;;;20.00;40.80;;;;;;5014203;28;19968;-63
2022/04/30 06:44:35;;;;;;;;;;;20.00;41.30;;;;;;5014229;28;20357;-63
2022/04/30 06:47:01;;;;;;;;;;;19.80;38.00;;;;;;5014389;28;20011;-63
2022/04/30 06:49:26;;;;;;;;;;;19.90;39.30;;;;;;5013786;28;19918;-62
2022/04/30 06:51:52;;;;;;;;;;;20.20;39.90;;;;;;5013037;28;19917;-62
2022/04/30 06:57:10;;;;;;;;;;;20.60;38.80;;;;;;5014138;28;19940;-65
2022/04/30 06:59:42;;;;;;;;;;;20.80;36.60;;;;;;5013683;28;19913;-65
2022/04/30 07:02:18;;;;;;;;;;;20.70;38.00;;;;;;5013500;28;19976;-68
2022/04/30 07:04:46;;;;;;;;;;;20.80;36.70;;;;;;5013970;28;19910;-66
2022/04/30 07:07:12;;;;;;;;;;;20.90;36.00;;;;;;5013690;28;20350;-68
2022/04/30 07:09:38;;;;;;;;;;;21.10;37.10;;;;;;5015946;28;19909;-65
2022/04/30 07:12:06;;;;;;;;;;;21.20;35.50;;;;;;5020207;28;19910;-65
2022/04/30 07:14:40;;;;;;;;;;;21.00;35.30;;;;;;5020019;28;19952;-61
2022/04/30 07:17:06;;;;;;;;;;;20.90;34.70;;;;;;5020298;28;19957;-64
2022/04/30 07:19:32;;;;;;;;;;;20.80;35.20;;;;;;5020112;28;19910;-64
2022/04/30 07:21:57;;;;;;;;;;;20.80;35.40;;;;;;5019954;28;19944;-66
2022/04/30 07:24:23;;;;;;;;;;;20.90;34.10;;;;;;5019908;28;19991;-69
2022/04/30 07:26:49;;;;;;;;;;;20.80;34.00;;;;;;5020057;28;20281;-65
2022/04/30 07:29:14;;;;;;;;;;;20.50;34.20;;;;;;5019909;28;19939;-65
2022/04/30 07:31:40;;;;;;;;;;;20.70;35.40;;;;;;5020373;28;19910;-63
2022/04/30 07:34:06;;;;;;;;;;;20.90;35.10;;;;;;5020149;28;19916;-70
2022/04/30 07:36:31;;;;;;;;;;;21.10;34.90;;;;;;5019917;28;20317;-65
2022/04/30 07:38:57;;;;;;;;;;;21.10;33.20;;;;;;5019972;28;20384;-76
2022/04/30 07:41:23;;;;;;;;;;;21.10;33.20;;;;;;5019885;28;19918;-76
2022/04/30 07:43:49;;;;;;;;;;;21.40;32.60;;;;;;5020073;28;19910;-77
2022/04/30 07:46:15;;;;;;;;;;;21.60;33.00;;;;;;5019936;28;19910;-77
2022/04/30 07:48:40;;;;;;;;;;;21.60;31.80;;;;;;5020252;28;19909;-71
2022/04/30 07:51:13;;;;;;;;;;;21.80;33.20;;;;;;5019880;28;20344;-70
2022/04/30 07:53:40;;;;;;;;;;;21.60;32.40;;;;;;5019806;28;19910;-69
2022/04/30 07:56:05;;;;;;;;;;;21.70;31.90;;;;;;5019872;28;19936;-71
2022/04/30 07:58:31;;;;;;;;;;;21.80;32.90;;;;;;5019518;28;20354;-72
2022/04/30 08:00:56;;;;;;;;;;;21.80;33.00;;;;;;5019828;28;19940;-66
2022/04/30 08:03:22;;;;;;;;;;;22.00;30.30;;;;;;5019431;28;20401;-73
2022/04/30 08:05:47;;;;;;;;;;;22.00;29.50;;;;;;5018142;28;19917;-63
2022/04/30 08:08:13;;;;;;;;;;;21.40;30.00;;;;;;5019739;28;19909;-68
2022/04/30 08:10:39;;;;;;;;;;;21.60;31.50;;;;;;5019966;28;19910;-69
2022/04/30 08:13:06;;;;;;;;;;;21.70;30.60;;;;;;5019355;28;19916;-69
2022/04/30 08:15:31;;;;;;;;;;;21.70;29.70;;;;;;5019587;28;19914;-67
2022/04/30 08:17:57;;;;;;;;;;;22.00;29.90;;;;;;5020051;28;19953;-65
2022/04/30 08:20:22;;;;;;;;;;;22.20;30.50;;;;;;5019446;28;19964;-69
2022/04/30 08:22:48;;;;;;;;;;;22.00;30.20;;;;;;5016120;28;19923;-67
2022/04/30 08:25:14;;;;;;;;;;;22.00;29.50;;;;;;5015293;28;20357;-67
2022/04/30 08:27:40;;;;;;;;;;;21.80;29.00;;;;;;5015790;28;19909;-67
2022/04/30 08:30:09;;;;;;;;;;;21.70;31.00;;;;;;5015068;28;20519;-65
2022/04/30 08:32:35;;;;;;;;;;;21.80;30.50;;;;;;5015772;28;19920;-68
2022/04/30 08:35:01;;;;;;;;;;;21.80;29.90;;;;;;5015780;28;19910;-64
2022/04/30 08:37:28;;;;;;;;;;;21.60;29.70;;;;;;5016429;28;19913;-68
2022/04/30 08:39:53;;;;;;;;;;;21.90;32.30;;;;;;5016384;28;20345;-67
2022/04/30 08:42:22;;;;;;;;;;;21.90;28.70;;;;;;5014644;28;20020;-64
2022/04/30 08:44:48;;;;;;;;;;;21.80;29.00;;;;;;5016454;28;19909;-67
2022/04/30 08:47:13;;;;;;;;;;;21.90;29.70;;;;;;5015948;28;19972;-66
2022/04/30 08:49:42;;;;;;;;;;;21.90;28.90;;;;;;5015944;28;19913;-66
2022/04/30 08:52:09;;;;;;;;;;;22.00;29.90;;;;;;5015978;28;19949;-65
2022/04/30 08:54:35;;;;;;;;;;;22.30;29.70;;;;;;5015895;28;20005;-71
2022/04/30 08:57:01;;;;;;;;;;;22.40;29.60;;;;;;5016078;28;19945;-66
2022/04/30 08:59:29;;;;;;;;;;;21.80;28.60;;;;;;5015950;28;19914;-70
2022/04/30 09:01:55;;;;;;;;;;;21.90;30.90;;;;;;5015866;28;19929;-69
2022/04/30 09:04:21;;;;;;;;;;;22.10;30.50;;;;;;5015791;28;19964;-70
2022/04/30 09:06:47;;;;;;;;;;;22.20;29.80;;;;;;5015703;28;19968;-66
2022/04/30 09:09:21;;;;;;;;;;;22.30;29.20;;;;;;5015391;28;20015;-65
2022/04/30 09:11:47;;;;;;;;;;;22.40;30.00;;;;;;5015670;28;20312;-69
2022/04/30 09:14:13;;;;;;;;;;;22.50;29.20;;;;;;5015694;28;19956;-69
2022/04/30 09:16:38;;;;;;;;;;;22.70;29.00;;;;;;5015498;28;19909;-67
2022/04/30 09:19:04;;;;;;;;;;;22.80;29.10;;;;;;5015502;28;19964;-68
2022/04/30 09:21:30;;;;;;;;;;;22.80;28.70;;;;;;5015279;28;19919;-69
2022/04/30 09:24:03;;;;;;;;;;;22.60;29.00;;;;;;5015165;28;20317;-68
2022/04/30 09:26:39;;;;;;;;;;;22.70;28.70;;;;;;5015289;28;19960;-66
2022/04/30 09:29:18;;;;;;;;;;;22.60;27.70;;;;;;5014015;28;19918;-68
2022/04/30 09:31:47;;;;;;;;;;;22.60;27.60;;;;;;5015321;28;19917;-66
2022/04/30 09:39:47;;;;;;;;;;;22.40;28.10;;;;;;4996080;28;20067;-63
2022/04/30 09:42:13;;;;;;;;;;;22.30;28.90;;;;;;5015095;28;20409;-64
2022/04/30 09:44:38;;;;;;;;;;;22.20;28.90;;;;;;5015031;28;19910;-65
2022/04/30 09:47:07;;;;;;;;;;;22.30;29.30;;;;;;5014962;28;20000;-64
2022/04/30 09:55:02;;;;;;;;;;;22.30;28.90;;;;;;5015190;28;19916;-66
2022/04/30 09:57:28;;;;;;;;;;;22.00;27.50;;;;;;5015022;28;19913;-63
2022/04/30 09:59:55;;;;;;;;;;;21.60;28.20;;;;;;5014300;28;20393;-66
2022/04/30 10:02:21;;;;;;;;;;;21.60;29.20;;;;;;5014207;28;20389;-66
2022/04/30 10:04:47;;;;;;;;;;;21.70;28.90;;;;;;5014361;28;19925;-66
2022/04/30 10:07:14;;;;;;;;;;;21.60;28.50;;;;;;5011695;28;19916;-66
2022/04/30 10:09:42;;;;;;;;;;;21.50;29.40;;;;;;5014243;28;19909;-65
2022/04/30 10:12:09;;;;;;;;;;;21.90;29.10;;;;;;5014039;28;19925;-64
2022/04/30 10:14:43;;;;;;;;;;;22.00;29.50;;;;;;5014101;28;19909;-62
2022/04/30 10:17:13;;;;;;;;;;;22.20;29.50;;;;;;5013992;28;19914;-63
2022/04/30 10:19:55;;;;;;;;;;;22.40;30.10;;;;;;5013874;28;20009;-63
2022/04/30 10:22:21;;;;;;;;;;;22.60;28.20;;;;;;5012685;28;19925;-65
2022/04/30 10:24:47;;;;;;;;;;;22.60;28.40;;;;;;5013477;28;19929;-64
2022/04/30 10:27:13;;;;;;;;;;;21.90;27.30;;;;;;5012956;28;19960;-66
2022/04/30 10:29:50;;;;;;;;;;;22.10;30.90;;;;;;5014112;28;19910;-67
2022/04/30 10:32:23;;;;;;;;;;;21.90;28.50;;;;;;4994682;28;20334;-64
2022/04/30 10:34:50;;;;;;;;;;;22.00;28.10;;;;;;4994504;28;19909;-65
2022/04/30 10:37:25;;;;;;;;;;;22.40;30.60;;;;;;4994765;28;19909;-63
2022/04/30 10:40:01;;;;;;;;;;;22.70;30.90;;;;;;4994383;28;19910;-62
2022/04/30 10:42:28;;;;;;;;;;;23.00;31.90;;;;;;4994543;28;20413;-60
2022/04/30 10:44:56;;;;;;;;;;;22.70;29.20;;;;;;4993783;28;20294;-62
2022/04/30 10:47:22;;;;;;;;;;;22.50;30.00;;;;;;4993757;28;19949;-64
2022/04/30 10:49:49;;;;;;;;;;;22.10;29.60;;;;;;4993911;28;19956;-61
2022/04/30 10:52:21;;;;;;;;;;;21.90;31.50;;;;;;4993260;28;19910;-63
2022/04/30 10:54:48;;;;;;;;;;;22.00;30.60;;;;;;4993672;28;20293;-65
2022/04/30 10:57:14;;;;;;;;;;;22.20;32.60;;;;;;4993295;28;19936;-62
2022/04/30 10:59:40;;;;;;;;;;;22.30;34.30;;;;;;4993447;28;19950;-61
2022/04/30 11:02:05;;;;;;;;;;;22.50;30.00;;;;;;4993155;28;19976;-63
2022/04/30 11:04:31;;;;;;;;;;;22.50;29.50;;;;;;4992202;28;19910;-64
2022/04/30 11:06:58;;;;;;;;;;;22.50;32.90;;;;;;4993450;28;19913;-63
2022/04/30 11:09:24;;;;;;;;;;;22.80;32.00;;;;;;4993228;28;19914;-64
2022/04/30 11:11:50;;;;;;;;;;;22.50;30.50;;;;;;4993285;28;20310;-60
2022/04/30 11:14:16;;;;;;;;;;;22.30;29.60;;;;;;4993082;28;19910;-61
2022/04/30 11:16:46;;;;;;;;;;;22.20;29.80;;;;;;4993414;28;19949;-61
2022/04/30 11:19:12;;;;;;;;;;;22.00;28.80;;;;;;4992489;28;19909;-62
2022/04/30 11:21:38;;;;;;;;;;;21.90;31.60;;;;;;4992466;28;19921;-61
2022/04/30 11:24:04;;;;;;;;;;;22.30;30.60;;;;;;4993369;28;19921;-61
2022/04/30 11:26:30;;;;;;;;;;;22.50;33.20;;;;;;4992482;28;19910;-61
2022/04/30 11:28:57;;;;;;;;;;;22.40;28.70;;;;;;4992616;28;19909;-63
2022/04/30 11:31:23;;;;;;;;;;;22.60;30.70;;;;;;4991904;28;19910;-62
2022/04/30 11:33:48;;;;;;;;;;;22.90;29.30;;;;;;4992038;28;19909;-62
2022/04/30 11:36:14;;;;;;;;;;;22.80;28.70;;;;;;4992131;28;20378;-62
2022/04/30 11:38:48;;;;;;;;;;;23.00;30.70;;;;;;4992186;28;20275;-62
2022/04/30 11:41:14;;;;;;;;;;;23.30;30.10;;;;;;4991859;28;19980;-60
2022/04/30 11:43:39;;;;;;;;;;;23.50;29.70;;;;;;4991808;28;19910;-61
2022/04/30 11:46:05;;;;;;;;;;;23.40;29.40;;;;;;4991921;28;19965;-62
2022/04/30 11:48:40;;;;;;;;;;;23.60;30.80;;;;;;4991961;28;19928;-59
2022/04/30 11:51:07;;;;;;;;;;;23.70;30.80;;;;;;4991770;28;19917;-61
2022/04/30 11:53:33;;;;;;;;;;;23.80;29.10;;;;;;4995118;28;19920;-59
2022/04/30 11:55:58;;;;;;;;;;;24.00;28.90;;;;;;4994676;28;20053;-61
2022/04/30 11:58:24;;;;;;;;;;;23.40;27.40;;;;;;5007458;28;20020;-61
2022/04/30 12:00:52;;;;;;;;;;;23.40;27.60;;;;;;5010945;28;19922;-61
2022/04/30 12:03:27;;;;;;;;;;;23.30;27.40;;;;;;4995509;28;19909;-60
2022/04/30 12:05:52;;;;;;;;;;;22.50;27.60;;;;;;4995613;28;20289;-64
2022/04/30 12:08:18;;;;;;;;;;;22.40;29.70;;;;;;4995258;28;19932;-66
2022/04/30 12:10:53;;;;;;;;;;;22.60;28.70;;;;;;5000071;28;19914;-65
2022/04/30 12:13:23;;;;;;;;;;;22.40;28.30;;;;;;4995249;28;20412;-61
2022/04/30 12:15:48;;;;;;;;;;;22.60;28.40;;;;;;4995352;28;20014;-61
2022/04/30 12:26:37;;;;;;;;;;;23.70;27.80;;;;;;4995048;28;20009;-62
2022/04/30 12:29:17;;;;;;;;;;;24.00;28.10;;;;;;4995271;28;20012;-66
2022/04/30 12:31:46;;;;;;;;;;;23.60;26.40;;;;;;4995243;28;19909;-62
2022/04/30 12:34:16;;;;;;;;;;;23.60;27.60;;;;;;5014651;28;19976;-61
2022/04/30 12:36:49;;;;;;;;;;;23.60;28.80;;;;;;5014786;28;19910;-62
2022/04/30 12:39:17;;;;;;;;;;;23.70;28.60;;;;;;5015065;28;20269;-63
2022/04/30 12:41:43;;;;;;;;;;;23.80;27.60;;;;;;5014710;28;20068;-62
2022/04/30 12:44:08;;;;;;;;;;;24.00;28.10;;;;;;5014426;28;19953;-60
2022/04/30 12:46:34;;;;;;;;;;;24.00;27.30;;;;;;5014711;28;19916;-61
2022/04/30 12:48:59;;;;;;;;;;;24.10;27.40;;;;;;5015491;28;19910;-60
2022/04/30 12:51:25;;;;;;;;;;;24.00;27.80;;;;;;5004039;28;19937;-63
2022/04/30 12:53:51;;;;;;;;;;;24.20;28.30;;;;;;5015822;28;19910;-64
2022/04/30 12:56:17;;;;;;;;;;;24.20;27.00;;;;;;5015830;28;19909;-60
2022/04/30 12:58:43;;;;;;;;;;;24.20;27.70;;;;;;5016150;28;20326;-61
2022/04/30 13:01:08;;;;;;;;;;;24.30;28.00;;;;;;5015683;28;19972;-63
2022/04/30 13:03:34;;;;;;;;;;;24.40;27.60;;;;;;5015762;28;19917;-61
2022/04/30 13:06:00;;;;;;;;;;;24.30;28.70;;;;;;5015695;28;19931;-62
2022/04/30 13:13:30;;;;;;;;;;;24.50;27.90;;;;;;5014548;28;19921;-62
2022/04/30 13:13:55;;;;;;;;;;;22.90;28.60;;;;;;5011802;28;20400;-64
2022/04/30 13:16:20;;;;;;;;;;;23.00;31.10;;;;;;5005363;28;19937;-63
2022/04/30 13:18:47;;;;;;;;;;;23.20;29.90;;;;;;5015035;28;20289;-66
2022/04/30 13:21:13;;;;;;;;;;;23.60;30.30;;;;;;5015066;28;19943;-67
2022/04/30 13:23:39;;;;;;;;;;;23.90;30.60;;;;;;5014855;28;19921;-62
2022/04/30 13:26:05;;;;;;;;;;;24.20;30.70;;;;;;5015639;28;19916;-64
2022/04/30 13:28:31;;;;;;;;;;;24.40;30.10;;;;;;5015693;28;19909;-66
2022/04/30 13:30:57;;;;;;;;;;;24.30;31.10;;;;;;5015115;28;20429;-63
2022/04/30 13:33:22;;;;;;;;;;;24.20;32.00;;;;;;5014831;28;19963;-61
2022/04/30 13:35:48;;;;;;;;;;;24.20;33.00;;;;;;5014361;28;19910;-59
2022/04/30 13:38:14;;;;;;;;;;;24.00;32.20;;;;;;5014825;28;19971;-61
2022/04/30 13:40:40;;;;;;;;;;;24.10;34.60;;;;;;5014621;28;19921;-61
2022/04/30 13:43:07;;;;;;;;;;;23.70;39.70;;;;;;5014520;28;20036;-61
2022/04/30 13:45:32;;;;;;;;;;;23.70;40.90;;;;;;5005025;28;19939;-61
2022/04/30 13:47:58;;;;;;;;;;;23.90;40.70;;;;;;5014354;28;20376;-61
2022/04/30 13:50:23;;;;;;;;;;;24.00;39.90;;;;;;5013886;28;19932;-61
2022/04/30 13:52:50;;;;;;;;;;;23.60;39.20;;;;;;5014768;28;19915;-62
2022/04/30 13:55:15;;;;;;;;;;;23.50;38.40;;;;;;5014748;28;20376;-61
2022/04/30 13:57:41;;;;;;;;;;;22.80;37.60;;;;;;5014924;28;19909;-61
2022/04/30 14:00:07;;;;;;;;;;;22.90;38.40;;;;;;5014744;28;19909;-60
2022/04/30 14:02:33;;;;;;;;;;;22.90;38.00;;;;;;5015333;28;20271;-62
2022/04/30 14:04:59;;;;;;;;;;;23.10;36.20;;;;;;5014706;28;19940;-60
2022/04/30 14:07:25;;;;;;;;;;;22.90;34.30;;;;;;5014736;28;19909;-61
2022/04/30 14:09:51;;;;;;;;;;;22.40;35.90;;;;;;5014965;28;20277;-62
2022/04/30 14:12:17;;;;;;;;;;;21.70;37.20;;;;;;5013329;28;20091;-61
2022/04/30 14:14:58;;;;;;;;;;;21.50;37.70;;;;;;5014375;28;20413;-61
2022/04/30 14:20:10;;;;;;;;;;;21.30;38.10;;;;;;5014462;28;20281;-59
2022/04/30 14:22:36;;;;;;;;;;;21.90;38.30;;;;;;5014998;28;19988;-62
2022/04/30 14:25:02;;;;;;;;;;;22.30;36.70;;;;;;5015351;28;20365;-60
2022/04/30 14:27:27;;;;;;;;;;;22.70;35.80;;;;;;5020845;28;19914;-60
2022/04/30 14:29:53;;;;;;;;;;;22.90;35.50;;;;;;5013241;28;19910;-61
2022/04/30 14:32:19;;;;;;;;;;;23.00;35.00;;;;;;5014558;28;19964;-61
2022/04/30 14:34:45;;;;;;;;;;;23.20;34.40;;;;;;5014848;28;19909;-61
2022/04/30 14:37:11;;;;;;;;;;;22.80;33.90;;;;;;5014593;28;19909;-61
2022/04/30 14:39:36;;;;;;;;;;;22.30;34.90;;;;;;5014867;28;19910;-62
2022/04/30 14:42:07;;;;;;;;;;;21.90;35.50;;;;;;5013247;28;20015;-62
2022/04/30 14:44:33;;;;;;;;;;;21.70;36.50;;;;;;5013133;28;19955;-62
2022/04/30 14:46:58;;;;;;;;;;;21.90;36.70;;;;;;5014345;28;20326;-60
2022/04/30 14:49:24;;;;;;;;;;;22.20;36.50;;;;;;5014869;28;19956;-60
2022/04/30 14:51:49;;;;;;;;;;;22.20;33.40;;;;;;5015320;28;19917;-60
2022/04/30 14:54:15;;;;;;;;;;;22.40;33.10;;;;;;5019858;28;20262;-61
2022/04/30 14:56:45;;;;;;;;;;;22.40;31.30;;;;;;5014554;28;19909;-61
2022/04/30 14:59:10;;;;;;;;;;;22.40;32.60;;;;;;5014418;28;19955;-63
2022/04/30 15:01:36;;;;;;;;;;;22.60;31.40;;;;;;5014015;28;19917;-60
2022/04/30 15:04:02;;;;;;;;;;;22.60;31.50;;;;;;5014147;28;20003;-64